sensor_id;sensor_type;location;lat;lon;timestamp;P1;durP1;ratioP1;P2;durP2;ratioP2
47749;SDS011;49810;48.160;10.812;2023-02-15T00:01:17;418.67;;;38.45;;
47749;SDS011;49810;48.160;10.812;2023-02-15T00:03:47;233.02;;;32.63;;
47749;SDS011;49810;48.160;10.812;2023-02-15T00:06:14;389.20;;;44.78;;
47749;SDS011;49810;48.160;10.812;2023-02-15T00:08:42;232.63;;;31.42;;
47749;SDS011;49810;48.160;10.812;2023-02-15T00:11:11;154.85;;;27.85;;
47749;SDS011;49810;48.160;10.812;2023-02-15T00:13:39;282.17;;;34.08;;
47749;SDS011;49810;48.160;10.812;2023-02-15T00:16:09;147.25;;;27.13;;
47749;SDS011;49810;48.160;10.812;2023-02-15T00:18:38;133.13;;;25.00;;
47749;SDS011;49810;48.160;10.812;2023-02-15T00:21:07;116.25;;;23.40;;
47749;SDS011;49810;48.160;10.812;2023-02-15T00:23:35;338.52;;;30.50;;
47749;SDS011;49810;48.160;10.812;2023-02-15T00:26:04;181.30;;;25.85;;
47749;SDS011;49810;48.160;10.812;2023-02-15T00:28:31;235.55;;;27.42;;
47749;SDS011;49810;48.160;10.812;2023-02-15T00:31:05;382.73;;;32.42;;
47749;SDS011;49810;48.160;10.812;2023-02-15T00:33:34;279.75;;;28.95;;
47749;SDS011;49810;48.160;10.812;2023-02-15T00:36:04;260.70;;;31.15;;
47749;SDS011;49810;48.160;10.812;2023-02-15T00:38:33;310.10;;;35.85;;
47749;SDS011;49810;48.160;10.812;2023-02-15T00:41:02;288.17;;;33.60;;
47749;SDS011;49810;48.160;10.812;2023-02-15T00:43:30;286.80;;;33.20;;
47749;SDS011;49810;48.160;10.812;2023-02-15T00:46:00;249.40;;;31.52;;
47749;SDS011;49810;48.160;10.812;2023-02-15T00:48:29;240.30;;;29.85;;
47749;SDS011;49810;48.160;10.812;2023-02-15T00:50:57;269.20;;;30.08;;
47749;SDS011;49810;48.160;10.812;2023-02-15T00:53:27;179.43;;;28.25;;
47749;SDS011;49810;48.160;10.812;2023-02-15T00:55:56;246.32;;;34.00;;
47749;SDS011;49810;48.160;10.812;2023-02-15T00:58:25;347.30;;;36.95;;
47749;SDS011;49810;48.160;10.812;2023-02-15T01:00:53;333.63;;;33.42;;
47749;SDS011;49810;48.160;10.812;2023-02-15T01:03:22;306.48;;;33.30;;
47749;SDS011;49810;48.160;10.812;2023-02-15T01:05:50;313.63;;;33.90;;
47749;SDS011;49810;48.160;10.812;2023-02-15T01:08:18;420.02;;;42.03;;
47749;SDS011;49810;48.160;10.812;2023-02-15T01:10:48;189.95;;;30.65;;
47749;SDS011;49810;48.160;10.812;2023-02-15T01:13:16;376.23;;;33.75;;
47749;SDS011;49810;48.160;10.812;2023-02-15T01:15:44;231.00;;;30.20;;
47749;SDS011;49810;48.160;10.812;2023-02-15T01:18:12;320.45;;;33.58;;
47749;SDS011;49810;48.160;10.812;2023-02-15T01:20:40;339.88;;;32.83;;
47749;SDS011;49810;48.160;10.812;2023-02-15T01:23:08;203.15;;;26.52;;
47749;SDS011;49810;48.160;10.812;2023-02-15T01:25:36;257.67;;;29.00;;
47749;SDS011;49810;48.160;10.812;2023-02-15T01:28:05;337.52;;;32.88;;
47749;SDS011;49810;48.160;10.812;2023-02-15T01:30:33;329.70;;;31.48;;
47749;SDS011;49810;48.160;10.812;2023-02-15T01:33:01;354.52;;;33.78;;
47749;SDS011;49810;48.160;10.812;2023-02-15T01:35:30;302.38;;;28.60;;
47749;SDS011;49810;48.160;10.812;2023-02-15T01:37:57;340.95;;;31.73;;
47749;SDS011;49810;48.160;10.812;2023-02-15T01:40:25;420.55;;;38.38;;
47749;SDS011;49810;48.160;10.812;2023-02-15T01:42:53;302.50;;;32.53;;
47749;SDS011;49810;48.160;10.812;2023-02-15T01:45:24;238.52;;;29.67;;
47749;SDS011;49810;48.160;10.812;2023-02-15T01:47:54;363.27;;;32.97;;
47749;SDS011;49810;48.160;10.812;2023-02-15T01:50:24;396.50;;;35.97;;
47749;SDS011;49810;48.160;10.812;2023-02-15T01:52:54;333.17;;;31.55;;
47749;SDS011;49810;48.160;10.812;2023-02-15T01:55:23;174.13;;;25.45;;
47749;SDS011;49810;48.160;10.812;2023-02-15T01:57:51;329.85;;;37.33;;
47749;SDS011;49810;48.160;10.812;2023-02-15T02:00:19;182.27;;;27.63;;
47749;SDS011;49810;48.160;10.812;2023-02-15T02:02:49;302.60;;;31.35;;
47749;SDS011;49810;48.160;10.812;2023-02-15T02:05:18;200.57;;;27.52;;
47749;SDS011;49810;48.160;10.812;2023-02-15T02:07:46;261.48;;;29.80;;
47749;SDS011;49810;48.160;10.812;2023-02-15T02:10:15;177.20;;;27.33;;
47749;SDS011;49810;48.160;10.812;2023-02-15T02:12:45;224.50;;;30.33;;
47749;SDS011;49810;48.160;10.812;2023-02-15T02:15:14;137.85;;;24.80;;
47749;SDS011;49810;48.160;10.812;2023-02-15T02:17:45;225.15;;;28.15;;
47749;SDS011;49810;48.160;10.812;2023-02-15T02:20:27;362.95;;;34.25;;
47749;SDS011;49810;48.160;10.812;2023-02-15T02:23:18;200.48;;;27.25;;
47749;SDS011;49810;48.160;10.812;2023-02-15T02:26:08;236.18;;;28.10;;
47749;SDS011;49810;48.160;10.812;2023-02-15T02:31:31;228.95;;;27.15;;
47749;SDS011;49810;48.160;10.812;2023-02-15T02:34:04;244.90;;;27.20;;
47749;SDS011;49810;48.160;10.812;2023-02-15T02:36:34;208.38;;;26.27;;
47749;SDS011;49810;48.160;10.812;2023-02-15T02:39:08;135.25;;;24.55;;
47749;SDS011;49810;48.160;10.812;2023-02-15T02:41:43;297.13;;;30.80;;
47749;SDS011;49810;48.160;10.812;2023-02-15T02:44:13;144.50;;;25.13;;
47749;SDS011;49810;48.160;10.812;2023-02-15T02:46:46;155.88;;;23.02;;
47749;SDS011;49810;48.160;10.812;2023-02-15T02:49:16;298.08;;;27.02;;
47749;SDS011;49810;48.160;10.812;2023-02-15T02:51:44;156.88;;;24.67;;
47749;SDS011;49810;48.160;10.812;2023-02-15T02:54:12;110.15;;;21.92;;
47749;SDS011;49810;48.160;10.812;2023-02-15T02:56:41;39.63;;;19.65;;
47749;SDS011;49810;48.160;10.812;2023-02-15T02:59:11;113.78;;;20.58;;
47749;SDS011;49810;48.160;10.812;2023-02-15T03:01:41;37.85;;;19.13;;
47749;SDS011;49810;48.160;10.812;2023-02-15T03:04:11;77.68;;;20.20;;
47749;SDS011;49810;48.160;10.812;2023-02-15T03:06:44;366.77;;;30.23;;
47749;SDS011;49810;48.160;10.812;2023-02-15T03:09:15;391.42;;;35.90;;
47749;SDS011;49810;48.160;10.812;2023-02-15T03:11:46;162.93;;;23.25;;
47749;SDS011;49810;48.160;10.812;2023-02-15T03:14:16;199.13;;;24.92;;
47749;SDS011;49810;48.160;10.812;2023-02-15T03:16:46;218.05;;;26.48;;
47749;SDS011;49810;48.160;10.812;2023-02-15T03:19:15;158.77;;;23.88;;
47749;SDS011;49810;48.160;10.812;2023-02-15T03:21:47;117.15;;;23.42;;
47749;SDS011;49810;48.160;10.812;2023-02-15T03:24:17;198.05;;;25.60;;
47749;SDS011;49810;48.160;10.812;2023-02-15T03:26:47;131.35;;;22.38;;
47749;SDS011;49810;48.160;10.812;2023-02-15T03:29:17;147.60;;;23.90;;
47749;SDS011;49810;48.160;10.812;2023-02-15T03:31:49;114.18;;;22.30;;
47749;SDS011;49810;48.160;10.812;2023-02-15T03:34:17;164.57;;;25.17;;
47749;SDS011;49810;48.160;10.812;2023-02-15T03:36:47;262.55;;;28.10;;
47749;SDS011;49810;48.160;10.812;2023-02-15T03:39:20;121.13;;;22.83;;
47749;SDS011;49810;48.160;10.812;2023-02-15T03:41:52;156.75;;;24.15;;
47749;SDS011;49810;48.160;10.812;2023-02-15T03:44:23;137.55;;;22.52;;
47749;SDS011;49810;48.160;10.812;2023-02-15T03:46:54;165.77;;;24.88;;
47749;SDS011;49810;48.160;10.812;2023-02-15T03:49:24;178.20;;;24.52;;
47749;SDS011;49810;48.160;10.812;2023-02-15T03:51:55;189.70;;;24.98;;
47749;SDS011;49810;48.160;10.812;2023-02-15T03:54:25;254.48;;;28.98;;
47749;SDS011;49810;48.160;10.812;2023-02-15T03:57:19;98.75;;;20.33;;
47749;SDS011;49810;48.160;10.812;2023-02-15T04:00:05;119.97;;;23.77;;
47749;SDS011;49810;48.160;10.812;2023-02-15T04:02:58;209.98;;;28.15;;
47749;SDS011;49810;48.160;10.812;2023-02-15T04:05:30;97.35;;;20.23;;
47749;SDS011;49810;48.160;10.812;2023-02-15T04:07:59;78.38;;;20.45;;
47749;SDS011;49810;48.160;10.812;2023-02-15T04:10:27;104.07;;;21.02;;
47749;SDS011;49810;48.160;10.812;2023-02-15T04:13:12;128.48;;;22.35;;
47749;SDS011;49810;48.160;10.812;2023-02-15T04:15:39;237.88;;;27.52;;
47749;SDS011;49810;48.160;10.812;2023-02-15T04:18:25;184.80;;;26.80;;
47749;SDS011;49810;48.160;10.812;2023-02-15T04:21:11;167.88;;;25.40;;
47749;SDS011;49810;48.160;10.812;2023-02-15T04:23:57;65.65;;;19.25;;
47749;SDS011;49810;48.160;10.812;2023-02-15T04:26:43;151.10;;;23.05;;
47749;SDS011;49810;48.160;10.812;2023-02-15T04:29:10;175.35;;;26.63;;
47749;SDS011;49810;48.160;10.812;2023-02-15T04:31:38;222.70;;;30.30;;
47749;SDS011;49810;48.160;10.812;2023-02-15T04:34:06;218.55;;;28.55;;
47749;SDS011;49810;48.160;10.812;2023-02-15T04:36:34;127.40;;;25.13;;
47749;SDS011;49810;48.160;10.812;2023-02-15T04:39:03;140.07;;;22.85;;
47749;SDS011;49810;48.160;10.812;2023-02-15T04:41:31;168.55;;;25.88;;
47749;SDS011;49810;48.160;10.812;2023-02-15T04:43:59;148.27;;;24.67;;
47749;SDS011;49810;48.160;10.812;2023-02-15T04:46:28;108.63;;;21.98;;
47749;SDS011;49810;48.160;10.812;2023-02-15T04:48:55;160.55;;;23.80;;
47749;SDS011;49810;48.160;10.812;2023-02-15T04:51:23;69.20;;;21.48;;
47749;SDS011;49810;48.160;10.812;2023-02-15T04:53:51;50.75;;;19.73;;
47749;SDS011;49810;48.160;10.812;2023-02-15T04:56:21;110.70;;;22.63;;
47749;SDS011;49810;48.160;10.812;2023-02-15T04:58:49;170.18;;;23.90;;
47749;SDS011;49810;48.160;10.812;2023-02-15T05:01:16;121.40;;;22.02;;
47749;SDS011;49810;48.160;10.812;2023-02-15T05:03:44;138.07;;;23.23;;
47749;SDS011;49810;48.160;10.812;2023-02-15T05:06:12;113.55;;;22.52;;
47749;SDS011;49810;48.160;10.812;2023-02-15T05:08:40;117.60;;;23.98;;
47749;SDS011;49810;48.160;10.812;2023-02-15T05:11:08;130.43;;;21.92;;
47749;SDS011;49810;48.160;10.812;2023-02-15T05:13:37;195.60;;;23.67;;
47749;SDS011;49810;48.160;10.812;2023-02-15T05:16:04;34.28;;;16.63;;
47749;SDS011;49810;48.160;10.812;2023-02-15T05:18:32;177.52;;;22.88;;
47749;SDS011;49810;48.160;10.812;2023-02-15T05:21:00;132.02;;;19.08;;
47749;SDS011;49810;48.160;10.812;2023-02-15T05:23:28;45.03;;;17.83;;
47749;SDS011;49810;48.160;10.812;2023-02-15T05:25:56;42.22;;;16.80;;
47749;SDS011;49810;48.160;10.812;2023-02-15T05:28:42;39.88;;;17.15;;
47749;SDS011;49810;48.160;10.812;2023-02-15T05:31:11;102.57;;;22.50;;
47749;SDS011;49810;48.160;10.812;2023-02-15T05:33:39;37.42;;;18.65;;
47749;SDS011;49810;48.160;10.812;2023-02-15T05:36:07;44.75;;;19.95;;
47749;SDS011;49810;48.160;10.812;2023-02-15T05:38:35;64.05;;;19.60;;
47749;SDS011;49810;48.160;10.812;2023-02-15T05:41:04;52.45;;;18.45;;
47749;SDS011;49810;48.160;10.812;2023-02-15T05:43:32;65.38;;;21.08;;
47749;SDS011;49810;48.160;10.812;2023-02-15T05:46:01;56.05;;;19.85;;
47749;SDS011;49810;48.160;10.812;2023-02-15T05:48:30;59.63;;;20.42;;
47749;SDS011;49810;48.160;10.812;2023-02-15T05:50:58;46.30;;;19.75;;
47749;SDS011;49810;48.160;10.812;2023-02-15T05:53:26;71.35;;;25.38;;
47749;SDS011;49810;48.160;10.812;2023-02-15T05:55:54;64.50;;;18.98;;
47749;SDS011;49810;48.160;10.812;2023-02-15T05:58:26;68.38;;;18.83;;
47749;SDS011;49810;48.160;10.812;2023-02-15T06:00:55;60.90;;;18.77;;
47749;SDS011;49810;48.160;10.812;2023-02-15T06:03:25;53.17;;;18.52;;
47749;SDS011;49810;48.160;10.812;2023-02-15T06:05:55;62.38;;;19.02;;
47749;SDS011;49810;48.160;10.812;2023-02-15T06:08:23;99.38;;;28.92;;
47749;SDS011;49810;48.160;10.812;2023-02-15T06:10:51;36.13;;;18.90;;
47749;SDS011;49810;48.160;10.812;2023-02-15T06:13:19;100.90;;;20.92;;
47749;SDS011;49810;48.160;10.812;2023-02-15T06:15:46;55.80;;;19.35;;
47749;SDS011;49810;48.160;10.812;2023-02-15T06:18:14;43.65;;;18.38;;
47749;SDS011;49810;48.160;10.812;2023-02-15T06:20:46;63.72;;;19.73;;
47749;SDS011;49810;48.160;10.812;2023-02-15T06:23:14;107.72;;;21.42;;
47749;SDS011;49810;48.160;10.812;2023-02-15T06:25:43;87.63;;;20.10;;
47749;SDS011;49810;48.160;10.812;2023-02-15T06:28:11;73.32;;;20.67;;
47749;SDS011;49810;48.160;10.812;2023-02-15T06:30:39;71.32;;;30.00;;
47749;SDS011;49810;48.160;10.812;2023-02-15T06:33:07;59.45;;;27.08;;
47749;SDS011;49810;48.160;10.812;2023-02-15T06:35:35;67.70;;;23.35;;
47749;SDS011;49810;48.160;10.812;2023-02-15T06:38:04;71.30;;;24.00;;
47749;SDS011;49810;48.160;10.812;2023-02-15T06:40:32;77.38;;;23.33;;
47749;SDS011;49810;48.160;10.812;2023-02-15T06:42:59;51.63;;;22.25;;
47749;SDS011;49810;48.160;10.812;2023-02-15T06:45:27;46.45;;;22.33;;
47749;SDS011;49810;48.160;10.812;2023-02-15T06:47:56;40.58;;;21.88;;
47749;SDS011;49810;48.160;10.812;2023-02-15T06:50:24;35.00;;;19.20;;
47749;SDS011;49810;48.160;10.812;2023-02-15T06:52:55;47.63;;;20.70;;
47749;SDS011;49810;48.160;10.812;2023-02-15T06:55:24;48.35;;;22.02;;
47749;SDS011;49810;48.160;10.812;2023-02-15T06:57:53;124.28;;;22.77;;
47749;SDS011;49810;48.160;10.812;2023-02-15T07:00:21;53.33;;;17.65;;
47749;SDS011;49810;48.160;10.812;2023-02-15T07:02:52;86.43;;;23.20;;
47749;SDS011;49810;48.160;10.812;2023-02-15T07:05:21;44.75;;;18.25;;
47749;SDS011;49810;48.160;10.812;2023-02-15T07:07:50;30.88;;;16.88;;
47749;SDS011;49810;48.160;10.812;2023-02-15T07:10:18;30.40;;;17.23;;
47749;SDS011;49810;48.160;10.812;2023-02-15T07:12:47;30.63;;;17.33;;
47749;SDS011;49810;48.160;10.812;2023-02-15T07:15:15;35.13;;;16.33;;
47749;SDS011;49810;48.160;10.812;2023-02-15T07:17:43;33.17;;;16.15;;
47749;SDS011;49810;48.160;10.812;2023-02-15T07:20:12;30.83;;;17.95;;
47749;SDS011;49810;48.160;10.812;2023-02-15T07:22:40;32.10;;;17.58;;
47749;SDS011;49810;48.160;10.812;2023-02-15T07:25:09;31.63;;;17.90;;
47749;SDS011;49810;48.160;10.812;2023-02-15T07:27:37;38.47;;;19.77;;
47749;SDS011;49810;48.160;10.812;2023-02-15T07:30:09;29.45;;;17.92;;
47749;SDS011;49810;48.160;10.812;2023-02-15T07:32:37;28.00;;;17.50;;
47749;SDS011;49810;48.160;10.812;2023-02-15T07:35:26;33.42;;;17.25;;
47749;SDS011;49810;48.160;10.812;2023-02-15T07:37:54;35.63;;;19.15;;
47749;SDS011;49810;48.160;10.812;2023-02-15T07:40:21;31.42;;;17.45;;
47749;SDS011;49810;48.160;10.812;2023-02-15T07:42:50;30.67;;;17.77;;
47749;SDS011;49810;48.160;10.812;2023-02-15T07:45:21;28.80;;;17.55;;
47749;SDS011;49810;48.160;10.812;2023-02-15T07:47:49;32.90;;;18.40;;
47749;SDS011;49810;48.160;10.812;2023-02-15T07:50:17;31.75;;;18.08;;
47749;SDS011;49810;48.160;10.812;2023-02-15T07:52:45;31.88;;;17.70;;
47749;SDS011;49810;48.160;10.812;2023-02-15T07:55:13;33.03;;;18.27;;
47749;SDS011;49810;48.160;10.812;2023-02-15T07:57:41;31.80;;;17.67;;
47749;SDS011;49810;48.160;10.812;2023-02-15T08:00:10;35.03;;;18.90;;
47749;SDS011;49810;48.160;10.812;2023-02-15T08:02:40;29.85;;;17.85;;
47749;SDS011;49810;48.160;10.812;2023-02-15T08:05:08;34.70;;;18.05;;
47749;SDS011;49810;48.160;10.812;2023-02-15T08:07:36;34.72;;;18.90;;
47749;SDS011;49810;48.160;10.812;2023-02-15T08:10:04;32.25;;;18.92;;
47749;SDS011;49810;48.160;10.812;2023-02-15T08:12:32;37.88;;;19.27;;
47749;SDS011;49810;48.160;10.812;2023-02-15T08:14:59;41.40;;;21.52;;
47749;SDS011;49810;48.160;10.812;2023-02-15T08:17:27;33.85;;;19.52;;
47749;SDS011;49810;48.160;10.812;2023-02-15T08:19:57;34.80;;;20.17;;
47749;SDS011;49810;48.160;10.812;2023-02-15T08:22:25;34.38;;;18.65;;
47749;SDS011;49810;48.160;10.812;2023-02-15T08:24:53;32.22;;;19.15;;
47749;SDS011;49810;48.160;10.812;2023-02-15T08:27:21;31.15;;;18.27;;
47749;SDS011;49810;48.160;10.812;2023-02-15T08:29:53;33.65;;;17.73;;
47749;SDS011;49810;48.160;10.812;2023-02-15T08:32:21;29.95;;;18.02;;
47749;SDS011;49810;48.160;10.812;2023-02-15T08:34:49;30.95;;;18.13;;
47749;SDS011;49810;48.160;10.812;2023-02-15T08:37:18;29.77;;;18.05;;
47749;SDS011;49810;48.160;10.812;2023-02-15T08:39:46;30.13;;;17.92;;
47749;SDS011;49810;48.160;10.812;2023-02-15T08:42:14;27.92;;;18.20;;
47749;SDS011;49810;48.160;10.812;2023-02-15T08:44:42;30.02;;;18.33;;
47749;SDS011;49810;48.160;10.812;2023-02-15T08:47:10;25.90;;;17.33;;
47749;SDS011;49810;48.160;10.812;2023-02-15T08:49:37;25.40;;;16.88;;
47749;SDS011;49810;48.160;10.812;2023-02-15T08:52:05;27.20;;;16.50;;
47749;SDS011;49810;48.160;10.812;2023-02-15T08:54:35;26.45;;;16.75;;
47749;SDS011;49810;48.160;10.812;2023-02-15T08:57:02;30.85;;;18.67;;
47749;SDS011;49810;48.160;10.812;2023-02-15T08:59:30;36.45;;;21.80;;
47749;SDS011;49810;48.160;10.812;2023-02-15T09:01:58;39.05;;;20.95;;
47749;SDS011;49810;48.160;10.812;2023-02-15T09:04:26;34.60;;;20.70;;
47749;SDS011;49810;48.160;10.812;2023-02-15T09:06:54;38.20;;;23.17;;
47749;SDS011;49810;48.160;10.812;2023-02-15T09:09:22;39.88;;;22.45;;
47749;SDS011;49810;48.160;10.812;2023-02-15T09:11:51;40.80;;;22.33;;
47749;SDS011;49810;48.160;10.812;2023-02-15T09:16:53;39.10;;;21.77;;
47749;SDS011;49810;48.160;10.812;2023-02-15T09:19:22;40.85;;;23.70;;
47749;SDS011;49810;48.160;10.812;2023-02-15T09:21:50;35.60;;;21.73;;
47749;SDS011;49810;48.160;10.812;2023-02-15T09:24:18;35.65;;;21.88;;
47749;SDS011;49810;48.160;10.812;2023-02-15T09:26:46;39.15;;;22.02;;
47749;SDS011;49810;48.160;10.812;2023-02-15T09:29:17;36.17;;;21.98;;
47749;SDS011;49810;48.160;10.812;2023-02-15T09:31:45;36.47;;;22.08;;
47749;SDS011;49810;48.160;10.812;2023-02-15T09:34:14;32.17;;;19.27;;
47749;SDS011;49810;48.160;10.812;2023-02-15T09:36:42;30.25;;;18.63;;
47749;SDS011;49810;48.160;10.812;2023-02-15T09:39:11;32.38;;;20.35;;
47749;SDS011;49810;48.160;10.812;2023-02-15T09:41:44;29.65;;;18.95;;
47749;SDS011;49810;48.160;10.812;2023-02-15T09:44:20;31.55;;;19.95;;
47749;SDS011;49810;48.160;10.812;2023-02-15T09:46:59;34.90;;;20.63;;
47749;SDS011;49810;48.160;10.812;2023-02-15T09:49:31;30.63;;;19.90;;
47749;SDS011;49810;48.160;10.812;2023-02-15T09:52:12;34.13;;;21.08;;
47749;SDS011;49810;48.160;10.812;2023-02-15T09:54:51;29.60;;;19.58;;
47749;SDS011;49810;48.160;10.812;2023-02-15T09:57:22;32.08;;;20.90;;
47749;SDS011;49810;48.160;10.812;2023-02-15T09:59:57;28.95;;;19.10;;
47749;SDS011;49810;48.160;10.812;2023-02-15T10:02:42;30.20;;;18.90;;
47749;SDS011;49810;48.160;10.812;2023-02-15T10:05:17;31.25;;;19.40;;
47749;SDS011;49810;48.160;10.812;2023-02-15T10:08:00;29.55;;;18.13;;
47749;SDS011;49810;48.160;10.812;2023-02-15T10:10:34;27.90;;;18.40;;
47749;SDS011;49810;48.160;10.812;2023-02-15T10:13:12;26.73;;;17.55;;
47749;SDS011;49810;48.160;10.812;2023-02-15T10:15:48;24.85;;;17.20;;
47749;SDS011;49810;48.160;10.812;2023-02-15T10:21:03;26.48;;;17.60;;
47749;SDS011;49810;48.160;10.812;2023-02-15T10:23:45;28.75;;;18.20;;
47749;SDS011;49810;48.160;10.812;2023-02-15T10:26:18;24.02;;;16.85;;
47749;SDS011;49810;48.160;10.812;2023-02-15T10:28:48;24.63;;;15.38;;
47749;SDS011;49810;48.160;10.812;2023-02-15T10:31:24;25.42;;;15.95;;
47749;SDS011;49810;48.160;10.812;2023-02-15T10:36:44;22.23;;;15.05;;
47749;SDS011;49810;48.160;10.812;2023-02-15T10:39:17;22.05;;;14.57;;
47749;SDS011;49810;48.160;10.812;2023-02-15T10:41:46;21.95;;;14.50;;
47749;SDS011;49810;48.160;10.812;2023-02-15T10:44:25;19.70;;;13.57;;
47749;SDS011;49810;48.160;10.812;2023-02-15T10:47:14;20.15;;;13.27;;
47749;SDS011;49810;48.160;10.812;2023-02-15T10:49:50;21.15;;;12.57;;
47749;SDS011;49810;48.160;10.812;2023-02-15T10:52:22;16.90;;;11.50;;
47749;SDS011;49810;48.160;10.812;2023-02-15T10:54:58;16.98;;;10.95;;
47749;SDS011;49810;48.160;10.812;2023-02-15T10:57:32;16.45;;;10.82;;
47749;SDS011;49810;48.160;10.812;2023-02-15T11:00:05;14.85;;;9.98;;
47749;SDS011;49810;48.160;10.812;2023-02-15T11:02:41;15.90;;;10.02;;
47749;SDS011;49810;48.160;10.812;2023-02-15T11:05:21;15.48;;;10.57;;
47749;SDS011;49810;48.160;10.812;2023-02-15T11:07:52;20.10;;;12.35;;
47749;SDS011;49810;48.160;10.812;2023-02-15T11:10:25;18.85;;;13.23;;
47749;SDS011;49810;48.160;10.812;2023-02-15T11:12:55;22.58;;;13.68;;
47749;SDS011;49810;48.160;10.812;2023-02-15T11:15:26;21.13;;;13.40;;
47749;SDS011;49810;48.160;10.812;2023-02-15T11:17:58;20.83;;;13.30;;
47749;SDS011;49810;48.160;10.812;2023-02-15T11:20:28;22.08;;;13.60;;
47749;SDS011;49810;48.160;10.812;2023-02-15T11:22:57;21.27;;;12.82;;
47749;SDS011;49810;48.160;10.812;2023-02-15T11:25:28;22.30;;;13.73;;
47749;SDS011;49810;48.160;10.812;2023-02-15T11:27:57;18.70;;;12.77;;
47749;SDS011;49810;48.160;10.812;2023-02-15T11:30:27;20.13;;;13.70;;
47749;SDS011;49810;48.160;10.812;2023-02-15T11:32:59;20.10;;;12.98;;
47749;SDS011;49810;48.160;10.812;2023-02-15T11:35:33;19.77;;;12.73;;
47749;SDS011;49810;48.160;10.812;2023-02-15T11:38:05;19.42;;;12.82;;
47749;SDS011;49810;48.160;10.812;2023-02-15T11:40:35;17.48;;;12.10;;
47749;SDS011;49810;48.160;10.812;2023-02-15T11:43:04;21.48;;;12.13;;
47749;SDS011;49810;48.160;10.812;2023-02-15T11:45:33;19.25;;;12.48;;
47749;SDS011;49810;48.160;10.812;2023-02-15T11:48:08;17.92;;;12.02;;
47749;SDS011;49810;48.160;10.812;2023-02-15T11:53:04;14.63;;;9.68;;
47749;SDS011;49810;48.160;10.812;2023-02-15T11:55:33;16.25;;;9.90;;
47749;SDS011;49810;48.160;10.812;2023-02-15T11:58:03;15.27;;;9.82;;
47749;SDS011;49810;48.160;10.812;2023-02-15T12:00:34;16.55;;;9.90;;
47749;SDS011;49810;48.160;10.812;2023-02-15T12:05:53;14.43;;;8.75;;
47749;SDS011;49810;48.160;10.812;2023-02-15T12:08:21;12.90;;;9.45;;
47749;SDS011;49810;48.160;10.812;2023-02-15T12:10:53;13.00;;;9.32;;
47749;SDS011;49810;48.160;10.812;2023-02-15T12:13:23;13.68;;;9.18;;
47749;SDS011;49810;48.160;10.812;2023-02-15T12:15:52;14.23;;;8.45;;
47749;SDS011;49810;48.160;10.812;2023-02-15T12:18:24;13.15;;;8.52;;
47749;SDS011;49810;48.160;10.812;2023-02-15T12:21:00;15.98;;;9.00;;
47749;SDS011;49810;48.160;10.812;2023-02-15T12:23:30;12.30;;;8.15;;
47749;SDS011;49810;48.160;10.812;2023-02-15T12:25:59;13.88;;;8.90;;
47749;SDS011;49810;48.160;10.812;2023-02-15T12:28:30;14.38;;;8.75;;
47749;SDS011;49810;48.160;10.812;2023-02-15T12:30:59;11.95;;;8.18;;
47749;SDS011;49810;48.160;10.812;2023-02-15T12:33:29;13.57;;;8.50;;
47749;SDS011;49810;48.160;10.812;2023-02-15T12:36:01;12.85;;;8.93;;
47749;SDS011;49810;48.160;10.812;2023-02-15T12:38:30;13.02;;;8.68;;
47749;SDS011;49810;48.160;10.812;2023-02-15T12:41:00;12.55;;;8.95;;
47749;SDS011;49810;48.160;10.812;2023-02-15T12:43:31;18.67;;;11.00;;
47749;SDS011;49810;48.160;10.812;2023-02-15T12:48:46;12.45;;;10.23;;
47749;SDS011;49810;48.160;10.812;2023-02-15T12:51:15;12.80;;;9.60;;
47749;SDS011;49810;48.160;10.812;2023-02-15T12:53:43;11.93;;;9.00;;
47749;SDS011;49810;48.160;10.812;2023-02-15T12:56:11;11.02;;;8.05;;
47749;SDS011;49810;48.160;10.812;2023-02-15T12:58:39;11.80;;;7.90;;
47749;SDS011;49810;48.160;10.812;2023-02-15T13:01:11;11.10;;;7.55;;
47749;SDS011;49810;48.160;10.812;2023-02-15T13:03:55;9.85;;;7.72;;
47749;SDS011;49810;48.160;10.812;2023-02-15T13:06:24;11.55;;;7.43;;
47749;SDS011;49810;48.160;10.812;2023-02-15T13:08:53;11.65;;;8.10;;
47749;SDS011;49810;48.160;10.812;2023-02-15T13:11:22;11.05;;;8.10;;
47749;SDS011;49810;48.160;10.812;2023-02-15T13:13:54;14.50;;;8.85;;
47749;SDS011;49810;48.160;10.812;2023-02-15T13:16:25;11.75;;;8.73;;
47749;SDS011;49810;48.160;10.812;2023-02-15T13:18:55;13.35;;;8.45;;
47749;SDS011;49810;48.160;10.812;2023-02-15T13:21:26;13.77;;;9.25;;
47749;SDS011;49810;48.160;10.812;2023-02-15T13:23:59;12.20;;;8.87;;
47749;SDS011;49810;48.160;10.812;2023-02-15T13:26:29;10.55;;;8.55;;
47749;SDS011;49810;48.160;10.812;2023-02-15T13:28:58;13.38;;;8.48;;
47749;SDS011;49810;48.160;10.812;2023-02-15T13:31:28;10.65;;;9.05;;
47749;SDS011;49810;48.160;10.812;2023-02-15T13:34:00;12.85;;;9.30;;
47749;SDS011;49810;48.160;10.812;2023-02-15T13:36:33;13.35;;;9.23;;
47749;SDS011;49810;48.160;10.812;2023-02-15T13:39:10;13.07;;;10.05;;
47749;SDS011;49810;48.160;10.812;2023-02-15T13:41:45;13.27;;;10.02;;
47749;SDS011;49810;48.160;10.812;2023-02-15T13:44:15;14.18;;;9.90;;
47749;SDS011;49810;48.160;10.812;2023-02-15T13:46:52;15.63;;;11.13;;
47749;SDS011;49810;48.160;10.812;2023-02-15T13:49:31;14.10;;;9.77;;
47749;SDS011;49810;48.160;10.812;2023-02-15T13:52:07;13.70;;;9.63;;
47749;SDS011;49810;48.160;10.812;2023-02-15T13:54:39;12.73;;;9.68;;
47749;SDS011;49810;48.160;10.812;2023-02-15T13:57:20;17.63;;;10.33;;
47749;SDS011;49810;48.160;10.812;2023-02-15T13:59:55;14.60;;;10.73;;
47749;SDS011;49810;48.160;10.812;2023-02-15T14:05:15;16.25;;;11.52;;
47749;SDS011;49810;48.160;10.812;2023-02-15T14:07:55;17.52;;;11.88;;
47749;SDS011;49810;48.160;10.812;2023-02-15T14:10:28;16.73;;;12.55;;
47749;SDS011;49810;48.160;10.812;2023-02-15T14:15:28;15.13;;;12.13;;
47749;SDS011;49810;48.160;10.812;2023-02-15T14:18:01;15.15;;;12.05;;
47749;SDS011;49810;48.160;10.812;2023-02-15T14:20:36;17.02;;;12.02;;
47749;SDS011;49810;48.160;10.812;2023-02-15T14:23:07;16.92;;;13.23;;
47749;SDS011;49810;48.160;10.812;2023-02-15T14:25:38;17.63;;;12.32;;
47749;SDS011;49810;48.160;10.812;2023-02-15T14:28:09;16.73;;;11.90;;
47749;SDS011;49810;48.160;10.812;2023-02-15T14:30:38;20.77;;;13.98;;
47749;SDS011;49810;48.160;10.812;2023-02-15T14:33:07;15.93;;;12.40;;
47749;SDS011;49810;48.160;10.812;2023-02-15T14:35:35;15.77;;;11.52;;
47749;SDS011;49810;48.160;10.812;2023-02-15T14:38:07;18.60;;;13.82;;
47749;SDS011;49810;48.160;10.812;2023-02-15T14:40:42;16.92;;;13.00;;
47749;SDS011;49810;48.160;10.812;2023-02-15T14:43:33;16.90;;;13.13;;
47749;SDS011;49810;48.160;10.812;2023-02-15T14:46:03;21.05;;;13.55;;
47749;SDS011;49810;48.160;10.812;2023-02-15T14:48:37;19.33;;;13.88;;
47749;SDS011;49810;48.160;10.812;2023-02-15T14:51:07;18.50;;;14.38;;